createdAt,value
2023-05-19T00:00:24.698Z,98853.52
2023-05-19T00:03:17.915Z,98853.55
2023-05-19T00:05:53.785Z,98850.07
2023-05-19T00:08:26.058Z,98852.98
2023-05-19T00:11:00.142Z,98852.73
2023-05-19T00:13:32.343Z,98853.80
2023-05-19T00:16:04.827Z,98846.20
2023-05-19T00:18:36.430Z,98847.27
2023-05-19T00:21:06.569Z,98841.89
2023-05-19T00:23:38.139Z,98844.58
2023-05-19T00:26:08.323Z,98849.64
2023-05-19T00:28:40.035Z,98849.40
2023-05-19T00:31:12.296Z,98849.39
2023-05-19T00:33:43.824Z,98850.42
2023-05-19T00:36:13.973Z,98844.58
2023-05-19T00:38:45.526Z,98841.25
2023-05-19T00:41:15.571Z,98834.29
2023-05-19T00:43:47.792Z,98831.67
2023-05-19T00:46:17.960Z,98829.30
2023-05-19T00:48:49.587Z,98828.79
2023-05-19T00:51:21.623Z,98827.69
2023-05-19T00:53:53.305Z,98823.95
2023-05-19T00:56:26.456Z,98822.77
2023-05-19T00:58:58.447Z,98821.05
2023-05-19T01:01:32.424Z,98815.56
2023-05-19T01:04:05.295Z,98814.79
2023-05-19T01:06:37.967Z,98813.55
2023-05-19T01:09:09.565Z,98817.39
2023-05-19T01:11:41.237Z,98816.48
2023-05-19T01:14:13.584Z,98816.46
2023-05-19T01:16:51.713Z,98819.33
2023-05-19T01:19:41.946Z,98818.35
2023-05-19T01:22:28.410Z,98816.11
2023-05-19T01:25:17.700Z,98811.88
2023-05-19T01:28:27.967Z,98813.14
2023-05-19T01:31:01.311Z,98818.41
2023-05-19T01:33:33.848Z,98816.73
2023-05-19T01:36:08.680Z,98817.84
2023-05-19T01:38:41.526Z,98818.79
2023-05-19T01:41:15.813Z,98822.18
2023-05-19T01:43:48.664Z,98822.72
2023-05-19T01:46:20.470Z,98824.25
2023-05-19T01:48:54.408Z,98815.44
2023-05-19T01:51:26.179Z,98812.34
2023-05-19T01:53:57.771Z,98813.02
2023-05-19T01:56:35.091Z,98812.98
2023-05-19T01:59:29.398Z,98814.10
2023-05-19T02:02:06.948Z,98809.52
2023-05-19T02:04:50.265Z,98806.35
2023-05-19T02:07:32.137Z,98804.58
2023-05-19T02:10:11.689Z,98808.04
2023-05-19T02:12:44.691Z,98804.64
2023-05-19T02:15:18.904Z,98802.10
2023-05-19T02:17:52.110Z,98798.56
2023-05-19T02:20:23.993Z,98798.16
2023-05-19T02:22:55.583Z,98796.78
2023-05-19T02:25:25.703Z,98786.59
2023-05-19T02:27:57.222Z,98790.73
2023-05-19T02:30:29.099Z,98789.23
2023-05-19T02:32:59.502Z,98788.84
2023-05-19T02:35:31.223Z,98778.52
2023-05-19T02:38:01.305Z,98775.92
2023-05-19T02:40:33.084Z,98767.83
2023-05-19T02:43:04.891Z,98765.98
2023-05-19T02:45:36.450Z,98762.39
2023-05-19T02:48:08.717Z,98760.55
2023-05-19T02:50:40.576Z,98759.48
2023-05-19T02:53:12.732Z,98753.18
2023-05-19T02:55:43.232Z,98752.26
2023-05-19T02:58:14.853Z,98756.16
2023-05-19T03:00:45.437Z,98761.59
2023-05-19T03:03:17.314Z,98770.80
2023-05-19T03:05:49.038Z,98775.16
2023-05-19T03:08:19.747Z,98771.23
2023-05-19T03:10:51.496Z,98772.10
2023-05-19T03:13:23.062Z,98776.06
2023-05-19T03:15:53.299Z,98776.86
2023-05-19T03:18:25.231Z,98775.09
2023-05-19T03:20:56.891Z,98770.29
2023-05-19T03:23:27.219Z,98771.98
2023-05-19T03:25:58.819Z,98776.84
2023-05-19T03:28:30.857Z,98778.77
2023-05-19T03:31:02.472Z,98775.87
2023-05-19T03:33:38.578Z,98769.42
2023-05-19T03:36:12.633Z,98764.19
2023-05-19T03:38:44.264Z,98764.90
2023-05-19T03:41:15.910Z,98765.95
2023-05-19T03:43:47.525Z,98772.27
2023-05-19T03:46:19.847Z,98778.02
2023-05-19T03:48:59.601Z,98782.16
2023-05-19T03:51:30.113Z,98786.20
2023-05-19T03:54:09.438Z,98785.70
2023-05-19T03:56:44.148Z,98788.95
2023-05-19T03:59:16.218Z,98791.34
2023-05-19T04:01:48.725Z,98791.09
2023-05-19T04:04:21.599Z,98792.12
2023-05-19T04:06:53.208Z,98792.88
2023-05-19T04:09:25.275Z,98795.21
2023-05-19T04:11:56.801Z,98798.21
2023-05-19T04:14:29.110Z,98802.94
2023-05-19T04:16:59.988Z,98803.05
2023-05-19T04:19:32.043Z,98807.54
2023-05-19T04:22:03.743Z,98803.13
2023-05-19T04:24:36.163Z,98797.31
2023-05-19T04:27:12.111Z,98797.20
2023-05-19T04:29:46.127Z,98796.84
2023-05-19T04:32:18.544Z,98792.52
2023-05-19T04:34:50.310Z,98790.15
2023-05-19T04:37:27.543Z,98791.30
2023-05-19T04:39:59.700Z,98791.05
2023-05-19T04:42:33.102Z,98793.84
2023-05-19T04:45:08.900Z,98790.26
2023-05-19T04:47:42.843Z,98786.86
2023-05-19T04:50:14.928Z,98786.13
2023-05-19T04:52:47.105Z,98787.34
2023-05-19T04:55:19.819Z,98787.55
2023-05-19T04:57:52.677Z,98794.27
2023-05-19T05:00:25.995Z,98797.38
2023-05-19T05:03:05.141Z,98795.40
2023-05-19T05:05:37.319Z,98799.41
2023-05-19T05:08:11.026Z,98803.54
2023-05-19T05:10:45.311Z,98799.64
2023-05-19T05:13:16.256Z,98802.13
2023-05-19T05:15:50.240Z,98802.42
2023-05-19T05:18:23.531Z,98803.12
2023-05-19T05:20:56.238Z,98805.73
2023-05-19T05:23:31.615Z,98805.14
2023-05-19T05:26:10.777Z,98807.24
2023-05-19T05:28:44.465Z,98809.77
2023-05-19T05:31:17.067Z,98809.88
2023-05-19T05:33:49.158Z,98808.40
2023-05-19T05:36:22.051Z,98806.30
2023-05-19T05:38:53.660Z,98805.16
2023-05-19T05:41:23.794Z,98805.66
2023-05-19T05:43:55.886Z,98808.64
2023-05-19T05:46:28.197Z,98806.22
2023-05-19T05:49:01.051Z,98810.19
2023-05-19T05:51:33.790Z,98811.45
2023-05-19T05:54:08.401Z,98815.13
2023-05-19T05:56:43.175Z,98814.77
2023-05-19T05:59:14.765Z,98814.63
2023-05-19T06:01:46.825Z,98810.95
2023-05-19T06:04:21.138Z,98816.39
2023-05-19T06:06:54.940Z,98815.68
2023-05-19T06:09:27.206Z,98817.95
2023-05-19T06:12:00.982Z,98819.73
2023-05-19T06:14:35.699Z,98824.73
2023-05-19T06:17:22.054Z,98825.65
2023-05-19T06:19:53.694Z,98822.56
2023-05-19T06:22:23.838Z,98820.27
2023-05-19T06:24:55.430Z,98822.17
2023-05-19T06:27:25.604Z,98823.91
2023-05-19T06:29:57.587Z,98830.09
2023-05-19T06:32:30.504Z,98825.85
2023-05-19T06:35:02.616Z,98828.31
2023-05-19T06:37:34.277Z,98829.58
2023-05-19T06:40:07.026Z,98827.34
2023-05-19T06:42:38.992Z,98824.45
2023-05-19T06:45:21.803Z,98828.27
2023-05-19T06:47:54.735Z,98831.92
2023-05-19T06:50:26.517Z,98827.85
2023-05-19T06:52:59.315Z,98827.60
2023-05-19T06:55:30.934Z,98829.23
2023-05-19T06:58:02.611Z,98826.86
2023-05-19T07:00:35.034Z,98826.48
2023-05-19T07:03:07.625Z,98825.90
2023-05-19T07:05:39.249Z,98827.24
2023-05-19T07:08:09.444Z,98821.14
2023-05-19T07:10:41.192Z,98825.02
2023-05-19T07:13:15.256Z,98822.31
2023-05-19T07:15:48.938Z,98820.83
2023-05-19T07:18:21.404Z,98816.95
2023-05-19T07:20:54.437Z,98816.06
2023-05-19T07:23:29.226Z,98818.86
2023-05-19T07:26:00.808Z,98814.63
2023-05-19T07:28:30.894Z,98816.96
2023-05-19T07:31:02.513Z,98815.83
2023-05-19T07:33:34.049Z,98814.32
2023-05-19T07:36:04.402Z,98816.05
2023-05-19T07:38:36.091Z,98818.88
2023-05-19T07:41:08.199Z,98816.42
2023-05-19T07:43:39.855Z,98817.52
2023-05-19T07:46:10.180Z,98824.02
2023-05-19T07:48:41.943Z,98826.14
2023-05-19T07:51:13.624Z,98818.77
2023-05-19T07:53:47.048Z,98818.98
2023-05-19T07:56:18.750Z,98822.25
2023-05-19T07:58:50.528Z,98822.50
2023-05-19T08:01:22.135Z,98824.23
2023-05-19T08:03:52.298Z,98823.73
2023-05-19T08:06:25.286Z,98825.23
2023-05-19T08:08:56.898Z,98825.43
2023-05-19T08:11:28.484Z,98824.69
2023-05-19T08:14:00.022Z,98828.62
2023-05-19T08:16:30.225Z,98827.11
2023-05-19T08:19:04.303Z,98827.80
2023-05-19T08:21:36.622Z,98828.12
2023-05-19T08:24:08.670Z,98829.41
2023-05-19T08:26:40.250Z,98824.02
2023-05-19T08:29:10.389Z,98820.48
2023-05-19T08:31:42.519Z,98820.70
2023-05-19T08:34:14.097Z,98822.80
2023-05-19T08:36:45.333Z,98824.23
2023-05-19T08:39:18.996Z,98824.76
2023-05-19T08:41:50.583Z,98820.70
2023-05-19T08:44:22.697Z,98819.13
2023-05-19T08:46:57.038Z,98820.95
2023-05-19T08:49:33.563Z,98824.22
2023-05-19T08:52:16.498Z,98824.58
2023-05-19T08:54:54.440Z,98824.59
2023-05-19T08:57:28.183Z,98825.79
2023-05-19T09:00:00.311Z,98825.86
2023-05-19T09:02:32.291Z,98827.63
2023-05-19T09:05:04.850Z,98826.39
2023-05-19T09:07:38.760Z,98829.65
2023-05-19T09:10:14.663Z,98829.31
2023-05-19T09:12:48.811Z,98828.55
2023-05-19T09:15:20.679Z,98826.67
2023-05-19T09:17:52.344Z,98825.31
2023-05-19T09:20:22.577Z,98829.33
2023-05-19T09:22:54.110Z,98832.97
2023-05-19T09:25:24.733Z,98836.14
2023-05-19T09:27:57.741Z,98838.32
2023-05-19T09:30:29.350Z,98832.95
2023-05-19T09:33:01.330Z,98829.84
2023-05-19T09:35:33.291Z,98829.27
2023-05-19T09:38:05.094Z,98828.59
2023-05-19T09:40:36.679Z,98830.75
2023-05-19T09:43:10.893Z,98829.41
2023-05-19T09:45:42.564Z,98827.29
2023-05-19T09:48:15.026Z,98828.27
2023-05-19T09:50:46.796Z,98828.73
2023-05-19T09:53:19.565Z,98829.20
2023-05-19T09:55:52.014Z,98828.10
2023-05-19T09:58:24.201Z,98830.94
2023-05-19T10:00:56.490Z,98829.15
2023-05-19T10:03:29.210Z,98834.15
2023-05-19T10:06:04.957Z,98831.95
2023-05-19T10:08:38.108Z,98830.44
2023-05-19T10:11:11.267Z,98833.52
2023-05-19T10:13:43.799Z,98830.81
2023-05-19T10:16:17.153Z,98831.53
2023-05-19T10:18:50.868Z,98830.49
2023-05-19T10:21:22.443Z,98826.87
2023-05-19T10:23:54.073Z,98828.11
2023-05-19T10:26:27.155Z,98826.58
2023-05-19T10:28:59.325Z,98827.92
2023-05-19T10:31:33.755Z,98827.40
2023-05-19T10:34:24.651Z,98828.27
2023-05-19T10:37:06.676Z,98825.92
2023-05-19T10:39:42.100Z,98824.08
2023-05-19T10:42:17.833Z,98825.01
2023-05-19T10:44:59.653Z,98822.83
2023-05-19T10:47:32.547Z,98823.22
2023-05-19T10:50:06.658Z,98821.15
2023-05-19T10:52:40.831Z,98818.41
2023-05-19T10:55:15.691Z,98817.48
2023-05-19T10:57:57.684Z,98818.84
2023-05-19T11:00:33.811Z,98816.62
2023-05-19T11:03:18.837Z,98819.77
2023-05-19T11:05:52.339Z,98821.31
2023-05-19T11:08:36.408Z,98819.36
2023-05-19T11:11:18.092Z,98815.25
2023-05-19T11:13:55.168Z,98813.30
2023-05-19T11:16:35.573Z,98813.70
2023-05-19T11:19:08.737Z,98813.83
2023-05-19T11:21:50.586Z,98815.34
2023-05-19T11:24:36.745Z,98815.19
2023-05-19T11:27:28.890Z,98812.15
2023-05-19T11:30:01.785Z,98813.61
2023-05-19T11:32:35.808Z,98813.13
2023-05-19T11:35:08.736Z,98814.94
2023-05-19T11:37:42.599Z,98819.21
2023-05-19T11:40:16.517Z,98816.57
2023-05-19T11:42:48.175Z,98814.85
2023-05-19T11:45:18.470Z,98813.95
2023-05-19T11:48:01.333Z,98814.82
2023-05-19T11:50:36.862Z,98817.66
2023-05-19T11:53:12.348Z,98815.88
2023-05-19T11:55:48.589Z,98813.73
2023-05-19T11:58:26.675Z,98811.40
2023-05-19T12:00:58.594Z,98812.35
2023-05-19T12:03:32.877Z,98809.97
2023-05-19T12:06:11.956Z,98812.28
2023-05-19T12:08:44.140Z,98815.05
2023-05-19T12:11:18.061Z,98820.91
2023-05-19T12:13:54.423Z,98819.60
2023-05-19T12:16:33.656Z,98818.42
2023-05-19T12:19:07.859Z,98815.95
2023-05-19T12:21:40.187Z,98816.17
2023-05-19T12:24:12.542Z,98816.42
2023-05-19T12:26:44.656Z,98818.24
2023-05-19T12:29:17.169Z,98817.30
2023-05-19T12:31:56.195Z,98816.39
2023-05-19T12:34:29.009Z,98813.39
2023-05-19T12:37:02.961Z,98809.05
2023-05-19T12:39:35.258Z,98810.05
2023-05-19T12:42:10.873Z,98805.07
2023-05-19T12:44:46.633Z,98804.27
2023-05-19T12:47:19.964Z,98799.95
2023-05-19T12:49:57.949Z,98800.27
2023-05-19T12:52:31.583Z,98801.59
2023-05-19T12:55:06.997Z,98800.23
2023-05-19T12:57:39.583Z,98799.14
2023-05-19T13:00:17.888Z,98796.86
2023-05-19T13:03:01.533Z,98796.42
2023-05-19T13:05:37.453Z,98796.23
2023-05-19T13:08:10.393Z,98797.98
2023-05-19T13:10:43.829Z,98795.83
2023-05-19T13:13:15.741Z,98796.95
2023-05-19T13:15:49.580Z,98795.77
2023-05-19T13:18:21.258Z,98795.88
2023-05-19T13:20:52.974Z,98793.98
2023-05-19T13:23:25.705Z,98794.93
2023-05-19T13:25:57.409Z,98791.90
2023-05-19T13:28:29.430Z,98796.48
2023-05-19T13:31:01.098Z,98796.59
2023-05-19T13:33:32.991Z,98796.73
2023-05-19T13:36:04.663Z,98792.55
2023-05-19T13:38:36.409Z,98794.14
2023-05-19T13:41:10.084Z,98795.30
2023-05-19T13:43:42.933Z,98793.95
2023-05-19T13:46:14.794Z,98789.21
2023-05-19T13:48:46.743Z,98789.10
2023-05-19T13:51:18.691Z,98789.02
2023-05-19T13:53:50.733Z,98792.10
2023-05-19T13:56:23.181Z,98790.79
2023-05-19T13:58:55.689Z,98791.97
2023-05-19T14:01:27.998Z,98791.62
2023-05-19T14:04:00.841Z,98792.54
2023-05-19T14:06:33.240Z,98792.81
2023-05-19T14:09:06.008Z,98795.84
2023-05-19T14:11:38.027Z,98797.21
2023-05-19T14:14:12.034Z,98801.73
2023-05-19T14:16:44.345Z,98801.33
2023-05-19T14:19:16.280Z,98799.17
2023-05-19T14:21:47.999Z,98800.62
2023-05-19T14:24:20.164Z,98799.70
2023-05-19T14:26:52.637Z,98805.30
2023-05-19T14:29:24.326Z,98808.92
2023-05-19T14:31:55.957Z,98809.54
2023-05-19T14:34:27.865Z,98813.01
2023-05-19T14:36:59.384Z,98811.71
2023-05-19T14:39:31.863Z,98812.09
2023-05-19T14:42:03.559Z,98811.08
2023-05-19T14:44:35.365Z,98811.71
2023-05-19T14:47:08.438Z,98813.38
2023-05-19T14:49:40.251Z,98808.95
2023-05-19T14:52:11.791Z,98808.30
2023-05-19T14:54:43.407Z,98810.13
2023-05-19T14:57:15.146Z,98808.12
2023-05-19T14:59:46.892Z,98807.00
2023-05-19T15:02:18.519Z,98808.32
2023-05-19T15:04:50.494Z,98808.89
2023-05-19T15:07:22.302Z,98807.50
2023-05-19T15:09:53.967Z,98808.40
2023-05-19T15:12:25.601Z,98810.73
2023-05-19T15:14:57.276Z,98812.68
2023-05-19T15:17:28.958Z,98815.61
2023-05-19T15:20:00.533Z,98819.98
2023-05-19T15:22:32.189Z,98821.38
2023-05-19T15:25:03.791Z,98813.45
2023-05-19T15:27:37.244Z,98811.76
2023-05-19T15:30:10.169Z,98814.28
2023-05-19T15:32:42.108Z,98810.02
2023-05-19T15:35:14.251Z,98811.61
2023-05-19T15:37:46.032Z,98812.09
2023-05-19T15:40:19.608Z,98809.80
2023-05-19T15:42:51.375Z,98808.11
2023-05-19T15:45:23.594Z,98808.08
2023-05-19T15:47:56.193Z,98806.16
2023-05-19T15:50:28.733Z,98804.27
2023-05-19T15:53:00.662Z,98802.15
2023-05-19T15:55:32.516Z,98802.77
2023-05-19T15:58:04.348Z,98803.77
2023-05-19T16:00:36.331Z,98805.70
2023-05-19T16:03:08.785Z,98801.40
2023-05-19T16:05:40.487Z,98802.70
2023-05-19T16:08:12.719Z,98802.73
2023-05-19T16:10:49.170Z,98804.92
2023-05-19T16:13:21.167Z,98806.17
2023-05-19T16:15:53.553Z,98803.05
2023-05-19T16:18:26.199Z,98807.77
2023-05-19T16:21:16.471Z,98807.55
2023-05-19T16:23:49.397Z,98809.78
2023-05-19T16:26:21.675Z,98809.64
2023-05-19T16:28:53.975Z,98810.46
2023-05-19T16:31:26.167Z,98813.77
2023-05-19T16:33:58.588Z,98814.88
2023-05-19T16:36:31.846Z,98814.19
2023-05-19T16:39:03.586Z,98815.81
2023-05-19T16:41:35.654Z,98815.48
2023-05-19T16:44:07.893Z,98820.13
2023-05-19T16:46:42.242Z,98815.59
2023-05-19T16:49:14.124Z,98816.63
2023-05-19T16:51:48.258Z,98812.27
2023-05-19T16:54:21.008Z,98814.85
2023-05-19T16:56:53.954Z,98817.23
2023-05-19T16:59:26.407Z,98818.18
2023-05-19T17:01:58.439Z,98818.23
2023-05-19T17:04:30.993Z,98816.73
2023-05-19T17:07:02.758Z,98822.05
2023-05-19T17:09:34.589Z,98823.83
2023-05-19T17:12:08.708Z,98821.25
2023-05-19T17:14:44.181Z,98826.73
2023-05-19T17:17:15.927Z,98821.73
2023-05-19T17:19:47.809Z,98820.89
2023-05-19T17:22:19.371Z,98818.45
2023-05-19T17:24:51.041Z,98821.30
2023-05-19T17:27:22.639Z,98818.14
2023-05-19T17:29:52.805Z,98812.09
2023-05-19T17:32:28.218Z,98816.60
2023-05-19T17:35:00.613Z,98815.23
2023-05-19T17:37:32.322Z,98816.77
2023-05-19T17:40:04.030Z,98818.95
2023-05-19T17:42:36.128Z,98821.90
2023-05-19T17:45:12.023Z,98823.72
2023-05-19T17:47:43.742Z,98824.64
2023-05-19T17:50:15.354Z,98826.45
2023-05-19T17:52:47.672Z,98831.27
2023-05-19T17:55:21.171Z,98833.73
2023-05-19T17:57:54.532Z,98836.31
2023-05-19T18:00:27.413Z,98839.30
2023-05-19T18:03:01.850Z,98837.73
2023-05-19T18:05:34.649Z,98841.24
2023-05-19T18:08:09.204Z,98839.80
2023-05-19T18:10:42.326Z,98840.65
2023-05-19T18:13:15.028Z,98836.30
2023-05-19T18:15:46.725Z,98838.84
2023-05-19T18:18:18.265Z,98839.36
2023-05-19T18:20:49.950Z,98839.45
2023-05-19T18:23:22.463Z,98841.56
2023-05-19T18:25:54.326Z,98844.11
2023-05-19T18:28:26.524Z,98845.98
2023-05-19T18:31:05.635Z,98850.17
2023-05-19T18:33:37.366Z,98850.77
2023-05-19T18:36:09.977Z,98849.67
2023-05-19T18:38:41.627Z,98852.98
2023-05-19T18:41:14.540Z,98853.64
2023-05-19T18:43:46.211Z,98856.94
2023-05-19T18:46:19.750Z,98858.59
2023-05-19T18:48:52.882Z,98861.08
2023-05-19T18:51:24.480Z,98860.48
2023-05-19T18:53:56.111Z,98859.63
2023-05-19T18:56:26.572Z,98863.75
2023-05-19T18:58:58.160Z,98866.06
2023-05-19T19:01:29.897Z,98867.09
2023-05-19T19:04:02.899Z,98865.95
2023-05-19T19:06:34.568Z,98866.02
2023-05-19T19:09:06.304Z,98867.91
2023-05-19T19:11:37.938Z,98876.77
2023-05-19T19:14:10.272Z,98876.62
2023-05-19T19:16:41.882Z,98881.33
2023-05-19T19:19:13.597Z,98878.36
2023-05-19T19:21:45.256Z,98882.34
2023-05-19T19:24:17.278Z,98881.89
2023-05-19T19:26:48.990Z,98882.27
2023-05-19T19:29:21.927Z,98879.86
2023-05-19T19:31:54.022Z,98880.11
2023-05-19T19:34:25.777Z,98880.20
2023-05-19T19:36:57.344Z,98876.50
2023-05-19T19:39:28.981Z,98882.11
2023-05-19T19:42:00.574Z,98886.63
2023-05-19T19:44:32.277Z,98886.13
2023-05-19T19:47:06.043Z,98888.27
2023-05-19T19:49:37.685Z,98886.17
2023-05-19T19:52:12.007Z,98888.27
2023-05-19T19:54:43.697Z,98882.87
2023-05-19T19:57:17.199Z,98883.89
2023-05-19T19:59:54.949Z,98882.89
2023-05-19T20:02:26.888Z,98884.11
2023-05-19T20:04:58.515Z,98884.02
2023-05-19T20:07:28.632Z,98880.64
2023-05-19T20:10:00.665Z,98875.19
2023-05-19T20:12:32.433Z,98875.80
2023-05-19T20:15:03.964Z,98874.81
2023-05-19T20:17:34.074Z,98872.48
2023-05-19T20:20:09.831Z,98874.35
2023-05-19T20:22:44.287Z,98873.60
2023-05-19T20:25:15.903Z,98871.14
2023-05-19T20:27:45.994Z,98875.59
2023-05-19T20:30:17.581Z,98874.64
2023-05-19T20:32:49.141Z,98871.84
2023-05-19T20:35:21.085Z,98870.83
2023-05-19T20:37:52.571Z,98874.08
2023-05-19T20:40:22.620Z,98871.89
2023-05-19T20:42:54.196Z,98875.44
2023-05-19T20:45:25.753Z,98873.86
2023-05-19T20:47:56.227Z,98874.71
2023-05-19T20:50:27.849Z,98867.95
2023-05-19T20:52:59.434Z,98861.73
2023-05-19T20:55:29.530Z,98857.77
2023-05-19T20:58:01.066Z,98854.36
2023-05-19T21:00:31.220Z,98857.23
2023-05-19T21:03:02.975Z,98857.62
2023-05-19T21:05:34.757Z,98857.27
2023-05-19T21:08:12.514Z,98857.77
2023-05-19T21:10:44.088Z,98857.43
2023-05-19T21:13:14.230Z,98856.38
2023-05-19T21:15:45.861Z,98853.42
2023-05-19T21:18:17.455Z,98855.08
2023-05-19T21:20:49.104Z,98857.84
2023-05-19T21:23:20.641Z,98855.63
2023-05-19T21:25:52.241Z,98858.66
2023-05-19T21:28:24.148Z,98858.43
2023-05-19T21:30:55.739Z,98859.81
2023-05-19T21:33:27.380Z,98865.54
2023-05-19T21:36:00.390Z,98866.30
2023-05-19T21:38:32.062Z,98869.75
2023-05-19T21:41:03.645Z,98869.48
2023-05-19T21:43:33.729Z,98869.91
2023-05-19T21:46:05.282Z,98864.36
2023-05-19T21:48:36.878Z,98861.22
2023-05-19T21:51:08.611Z,98860.20
2023-05-19T21:53:40.534Z,98862.61
2023-05-19T21:56:12.101Z,98867.82
2023-05-19T21:58:43.905Z,98862.58
2023-05-19T22:01:15.516Z,98868.27
2023-05-19T22:03:47.175Z,98870.48
2023-05-19T22:06:18.997Z,98868.98
2023-05-19T22:08:50.559Z,98867.73
2023-05-19T22:11:21.370Z,98865.51
2023-05-19T22:13:54.683Z,98867.07
2023-05-19T22:16:26.364Z,98860.71
2023-05-19T22:18:58.212Z,98858.30
2023-05-19T22:21:31.142Z,98859.97
2023-05-19T22:24:02.637Z,98856.91
2023-05-19T22:26:32.752Z,98855.73
2023-05-19T22:29:04.345Z,98856.82
2023-05-19T22:31:34.403Z,98850.91
2023-05-19T22:34:05.881Z,98847.07
2023-05-19T22:36:36.054Z,98849.93
2023-05-19T22:39:07.874Z,98844.84
2023-05-19T22:41:39.635Z,98843.58
2023-05-19T22:44:15.363Z,98843.34
2023-05-19T22:46:46.973Z,98843.55
2023-05-19T22:49:17.116Z,98841.48
2023-05-19T22:51:48.680Z,98845.20
2023-05-19T22:54:20.261Z,98841.29
2023-05-19T22:56:50.365Z,98842.95
2023-05-19T22:59:21.891Z,98843.91
2023-05-19T23:01:52.108Z,98849.13
2023-05-19T23:04:23.741Z,98842.23
2023-05-19T23:06:55.628Z,98842.02
2023-05-19T23:09:27.322Z,98840.62
2023-05-19T23:11:58.867Z,98841.36
2023-05-19T23:14:28.952Z,98834.85
2023-05-19T23:17:00.516Z,98832.23
2023-05-19T23:19:31.940Z,98833.48
2023-05-19T23:22:03.541Z,98836.20
2023-05-19T23:24:35.144Z,98837.00
2023-05-19T23:27:05.473Z,98835.78
2023-05-19T23:29:37.056Z,98838.20
2023-05-19T23:32:10.594Z,98833.95
2023-05-19T23:34:42.092Z,98836.23
2023-05-19T23:37:13.874Z,98836.15
2023-05-19T23:39:45.499Z,98839.92
2023-05-19T23:42:17.105Z,98839.23
2023-05-19T23:44:48.755Z,98835.42
2023-05-19T23:47:20.257Z,98831.98
2023-05-19T23:49:50.394Z,98828.77
2023-05-19T23:52:21.985Z,98830.66
2023-05-19T23:54:53.569Z,98829.40
2023-05-19T23:57:23.653Z,98828.70
2023-05-19T23:59:55.200Z,98822.58
